4XDNS LLBG-LLBG
Flight info
| Callsign | 4XDNS |
|---|---|
| Flight time | 0h 2m |
| Altitude | 1200 |
| Route | CIRCUITS |
| Aircraft | C172/L-VD/A |
Departure
| Time | 2026-04-30 13:53 |
|---|---|
| Airport | Ben Gurion International Airport (LLBG) |
Arrival
| Time | 2026-04-30 13:55 |
|---|---|
| Airport | Ben Gurion International Airport (LLBG) |
| Time | Latitude | Longitude | Altitude | Speed | Heading |
|---|---|---|---|---|---|
| 2026-04-30 13:37 | 32.00665 | 34.89580 | 114 ft | 0 kts | 298° |
| 2026-04-30 13:46 | 32.00665 | 34.89579 | 114 ft | 0 kts | 117° |
| 2026-04-30 13:48 | 32.00664 | 34.89582 | 114 ft | 4 kts | 118° |
| 2026-04-30 13:48 | 32.00649 | 34.89616 | 114 ft | 6 kts | 117° |
| 2026-04-30 13:49 | 32.00618 | 34.89631 | 114 ft | 5 kts | 218° |
| 2026-04-30 13:49 | 32.00590 | 34.89623 | 114 ft | 4 kts | 154° |
| 2026-04-30 13:49 | 32.00557 | 34.89677 | 114 ft | 10 kts | 146° |
| 2026-04-30 13:49 | 32.00499 | 34.89669 | 114 ft | 8 kts | 198° |
| 2026-04-30 13:50 | 32.00451 | 34.89653 | 114 ft | 6 kts | 195° |
| 2026-04-30 13:50 | 32.00333 | 34.89611 | 114 ft | 9 kts | 196° |
| 2026-04-30 13:50 | 32.00263 | 34.89585 | 114 ft | 12 kts | 198° |
| 2026-04-30 13:51 | 32.00182 | 34.89558 | 114 ft | 12 kts | 196° |
| 2026-04-30 13:51 | 32.00111 | 34.89533 | 114 ft | 12 kts | 196° |
| 2026-04-30 13:51 | 32.00023 | 34.89499 | 114 ft | 14 kts | 198° |
| 2026-04-30 13:51 | 32.00018 | 34.89398 | 115 ft | 30 kts | 301° |
| 2026-04-30 13:52 | 32.00203 | 34.89040 | 137 ft | 66 kts | 301° |
| 2026-04-30 13:52 | 32.00455 | 34.88542 | 252 ft | 78 kts | 301° |
| 2026-04-30 13:52 | 32.00740 | 34.87997 | 442 ft | 81 kts | 302° |
| 2026-04-30 13:52 | 32.01053 | 34.87449 | 670 ft | 79 kts | 306° |
| 2026-04-30 13:53 | 32.01308 | 34.86870 | 885 ft | 89 kts | 273° |
| 2026-04-30 13:53 | 32.00822 | 34.86380 | 972 ft | 110 kts | 156° |
| 2026-04-30 13:53 | 32.00232 | 34.86952 | 1068 ft | 127 kts | 132° |
| 2026-04-30 13:53 | 31.99592 | 34.87733 | 1057 ft | 125 kts | 133° |
| 2026-04-30 13:54 | 31.98942 | 34.88505 | 1036 ft | 138 kts | 129° |
| 2026-04-30 13:54 | 31.98494 | 34.89442 | 1172 ft | 114 kts | 75° |
| 2026-04-30 13:54 | 31.98904 | 34.89964 | 751 ft | 113 kts | 31° |
| 2026-04-30 13:54 | 31.99443 | 34.90031 | 570 ft | 63 kts | 338° |
| 2026-04-30 13:55 | 31.99797 | 34.89749 | 253 ft | 77 kts | 315° |
| 2026-04-30 13:55 | 32.00101 | 34.89226 | 133 ft | 66 kts | 303° |
| 2026-04-30 13:55 | 32.00292 | 34.88839 | 118 ft | 44 kts | 299° |
| 2026-04-30 13:55 | 32.00431 | 34.88590 | 115 ft | 32 kts | 301° |
| 2026-04-30 13:56 | 32.00530 | 34.88398 | 116 ft | 26 kts | 301° |
| 2026-04-30 13:56 | 32.00626 | 34.88212 | 116 ft | 32 kts | 301° |
| 2026-04-30 13:56 | 32.00716 | 34.88055 | 115 ft | 17 kts | 333° |
| 2026-04-30 13:56 | 32.00806 | 34.88076 | 115 ft | 15 kts | 31° |
| 2026-04-30 13:57 | 32.00911 | 34.88185 | 115 ft | 18 kts | 89° |
| 2026-04-30 13:57 | 32.00797 | 34.88424 | 115 ft | 58 kts | 121° |
| 2026-04-30 13:57 | 32.00552 | 34.88894 | 115 ft | 64 kts | 121° |
| 2026-04-30 13:57 | 32.00367 | 34.89255 | 114 ft | 28 kts | 121° |
| 2026-04-30 13:58 | 32.00272 | 34.89440 | 114 ft | 25 kts | 121° |